Time;durP1;ratioP1;P1;durP2;ratioP2;P2;SDS_P1;SDS_P2;PMS_P1;PMS_P2;Temp;Humidity;BMP_temperature;BMP_pressure;BME280_temperature;BME280_humidity;BME280_pressure;Samples;Min_cycle;Max_cycle;Signal;HPM_P1;HPM_P2
2022/03/19 00:00:27;;;;;;;15.95;11.40;;;4.90;99.90;;;;;;5001566;28;20036;-80
2022/03/19 00:02:53;;;;;;;18.60;11.57;;;4.80;99.90;;;;;;4982770;28;20045;-80
2022/03/19 00:05:18;;;;;;;18.67;11.27;;;4.90;99.90;;;;;;4991444;28;20029;-81
2022/03/19 00:07:44;;;;;;;19.10;11.93;;;4.90;99.90;;;;;;4977816;28;20034;-81
2022/03/19 00:10:10;;;;;;;24.30;11.20;;;4.90;99.90;;;;;;4974387;28;20076;-81
2022/03/19 00:12:38;;;;;;;18.83;10.98;;;4.90;99.90;;;;;;4984158;28;20057;-80
2022/03/19 00:15:04;;;;;;;19.27;11.45;;;4.80;99.90;;;;;;4970542;28;20437;-81
2022/03/19 00:17:30;;;;;;;23.92;11.95;;;4.80;99.90;;;;;;4983771;28;20045;-80
2022/03/19 00:19:55;;;;;;;20.20;11.85;;;4.80;99.90;;;;;;4991730;28;20029;-80
2022/03/19 00:22:21;;;;;;;25.15;12.48;;;4.80;99.90;;;;;;4983755;28;20140;-80
2022/03/19 00:24:46;;;;;;;22.02;10.85;;;4.80;99.90;;;;;;4973003;28;20046;-81
2022/03/19 00:27:12;;;;;;;17.90;11.73;;;4.80;99.90;;;;;;4984568;28;20054;-81
2022/03/19 00:29:37;;;;;;;20.40;12.05;;;4.70;99.90;;;;;;4975601;28;20034;-81
2022/03/19 00:32:03;;;;;;;18.85;11.32;;;4.70;99.90;;;;;;4972831;28;20175;-80
2022/03/19 00:34:29;;;;;;;25.30;12.23;;;4.70;99.90;;;;;;4972212;28;20041;-80
2022/03/19 00:36:56;;;;;;;23.77;12.23;;;4.70;99.90;;;;;;4983878;28;20025;-80
2022/03/19 00:39:21;;;;;;;21.55;11.88;;;4.70;99.90;;;;;;5015421;28;20041;-81
2022/03/19 00:41:47;;;;;;;21.63;12.45;;;4.70;99.90;;;;;;4981104;28;20056;-81
2022/03/19 00:44:12;;;;;;;21.42;12.73;;;4.60;99.90;;;;;;4986112;28;20041;-80
2022/03/19 00:46:38;;;;;;;20.65;11.73;;;4.50;99.90;;;;;;5007960;28;20029;-80
2022/03/19 00:49:03;;;;;;;18.35;11.63;;;4.60;99.90;;;;;;4972638;28;20049;-80
2022/03/19 00:51:29;;;;;;;23.40;14.07;;;4.50;99.90;;;;;;4969683;28;20056;-80
2022/03/19 00:53:54;;;;;;;23.63;12.52;;;4.60;99.90;;;;;;5006867;28;20454;-80
2022/03/19 00:56:20;;;;;;;17.25;11.95;;;4.50;99.90;;;;;;4981381;28;20037;-80
2022/03/19 00:58:46;;;;;;;23.77;12.82;;;4.60;99.90;;;;;;4982680;28;20552;-80
2022/03/19 01:01:11;;;;;;;24.77;12.90;;;4.50;99.90;;;;;;4976183;28;20377;-80
2022/03/19 01:03:37;;;;;;;23.67;11.68;;;4.40;99.90;;;;;;4995145;28;20028;-80
2022/03/19 01:06:02;;;;;;;23.52;13.18;;;4.50;99.90;;;;;;5003194;28;20029;-80
2022/03/19 01:08:28;;;;;;;24.88;13.07;;;4.40;99.90;;;;;;4975216;28;20054;-80
2022/03/19 01:10:54;;;;;;;24.60;13.15;;;4.30;99.90;;;;;;4978458;28;20025;-80
2022/03/19 01:13:19;;;;;;;26.02;14.02;;;4.40;99.90;;;;;;4985063;28;20061;-80
2022/03/19 01:15:45;;;;;;;22.27;12.50;;;4.30;99.90;;;;;;4971559;28;20076;-80
2022/03/19 01:18:10;;;;;;;24.02;12.57;;;4.30;99.90;;;;;;4978840;28;20025;-80
2022/03/19 01:20:36;;;;;;;25.10;13.20;;;4.40;99.90;;;;;;4979155;28;20103;-80
2022/03/19 01:23:01;;;;;;;21.02;11.93;;;4.50;99.90;;;;;;4990051;28;20094;-80
2022/03/19 01:25:27;;;;;;;17.85;12.45;;;4.50;99.90;;;;;;5003649;28;20049;-80
2022/03/19 01:27:53;;;;;;;25.20;12.40;;;4.40;99.90;;;;;;4988641;28;20494;-80
2022/03/19 01:30:19;;;;;;;19.40;12.20;;;4.40;99.90;;;;;;4984639;28;20060;-80
2022/03/19 01:32:46;;;;;;;18.75;11.93;;;4.40;99.90;;;;;;4993224;28;20045;-80
2022/03/19 01:35:18;;;;;;;21.60;12.02;;;4.30;99.90;;;;;;4972735;28;20057;-81
2022/03/19 01:37:44;;;;;;;23.52;12.18;;;4.50;99.90;;;;;;4985784;28;20034;-80
2022/03/19 01:40:10;;;;;;;22.58;11.55;;;4.50;99.90;;;;;;4989721;28;20417;-80
2022/03/19 01:42:41;;;;;;;19.50;12.93;;;4.50;99.90;;;;;;4983054;28;20068;-80
2022/03/19 01:45:10;;;;;;;22.48;12.18;;;4.40;99.90;;;;;;4969139;28;20060;-80
2022/03/19 01:47:36;;;;;;;31.35;13.25;;;4.40;99.90;;;;;;4986011;28;20042;-80
2022/03/19 01:50:02;;;;;;;24.83;13.75;;;4.40;99.90;;;;;;4990555;28;20183;-80
2022/03/19 01:52:28;;;;;;;23.23;13.55;;;4.30;99.90;;;;;;5004860;28;20505;-80
2022/03/19 01:54:54;;;;;;;25.95;14.70;;;4.30;99.90;;;;;;4971311;28;20129;-80
2022/03/19 01:57:21;;;;;;;22.10;13.43;;;4.20;99.90;;;;;;4979759;28;20476;-81
2022/03/19 01:59:47;;;;;;;23.10;13.40;;;4.10;99.90;;;;;;5002053;28;20448;-80
2022/03/19 02:02:13;;;;;;;21.60;13.27;;;4.00;99.90;;;;;;4982789;28;20044;-80
2022/03/19 02:04:39;;;;;;;19.10;12.40;;;4.00;99.90;;;;;;4986273;28;20045;-80
2022/03/19 02:07:09;;;;;;;21.52;13.93;;;4.10;99.90;;;;;;4984714;28;20028;-80
2022/03/19 02:09:35;;;;;;;24.83;12.48;;;4.20;99.90;;;;;;5003410;28;20050;-80
2022/03/19 02:12:02;;;;;;;21.58;12.90;;;4.20;99.90;;;;;;4992548;28;20072;-81
2022/03/19 02:14:27;;;;;;;27.15;13.93;;;4.20;99.90;;;;;;4987746;28;20030;-80
2022/03/19 02:16:53;;;;;;;20.27;13.77;;;4.20;99.90;;;;;;4992522;28;20041;-80
2022/03/19 02:19:18;;;;;;;23.60;13.25;;;4.20;99.90;;;;;;4983201;28;20048;-80
2022/03/19 02:21:49;;;;;;;21.88;13.27;;;4.20;99.90;;;;;;4972296;28;20501;-80
2022/03/19 02:26:59;;;;;;;21.40;13.07;;;4.00;99.90;;;;;;4992325;28;20041;-80
2022/03/19 02:29:25;;;;;;;25.60;12.98;;;3.90;99.90;;;;;;4988314;28;20037;-80
2022/03/19 02:31:55;;;;;;;24.05;13.68;;;3.90;99.90;;;;;;4983616;28;20065;-80
2022/03/19 02:34:21;;;;;;;25.08;13.57;;;3.90;99.90;;;;;;4970497;28;20426;-80
2022/03/19 02:36:46;;;;;;;21.20;13.48;;;3.70;99.90;;;;;;4979923;28;20044;-82
2022/03/19 02:39:16;;;;;;;20.08;13.52;;;3.70;99.90;;;;;;4985614;28;20565;-80
2022/03/19 02:41:45;;;;;;;25.05;13.85;;;3.70;99.90;;;;;;5009011;28;20037;-81
2022/03/19 02:44:11;;;;;;;26.17;14.45;;;3.70;99.90;;;;;;5002864;28;20033;-80
2022/03/19 02:46:38;;;;;;;24.23;15.05;;;3.60;99.90;;;;;;4983409;28;20056;-80
2022/03/19 02:49:04;;;;;;;24.75;13.75;;;3.50;99.90;;;;;;4975296;28;20029;-79
2022/03/19 02:51:31;;;;;;;21.55;13.95;;;3.40;99.90;;;;;;4983747;28;20053;-80
2022/03/19 02:53:56;;;;;;;32.28;15.95;;;3.40;99.90;;;;;;4966851;28;20084;-79
2022/03/19 02:56:22;;;;;;;25.90;15.50;;;3.40;99.90;;;;;;4985812;28;20505;-80
2022/03/19 02:58:47;;;;;;;24.30;14.88;;;3.40;99.90;;;;;;4976335;28;20037;-80
2022/03/19 03:01:13;;;;;;;29.02;14.38;;;3.30;99.90;;;;;;4975205;28;20026;-80
2022/03/19 03:03:41;;;;;;;24.25;14.55;;;3.40;99.90;;;;;;4971565;28;20037;-80
2022/03/19 03:06:06;;;;;;;22.20;13.85;;;3.20;99.90;;;;;;4993551;28;20108;-80
2022/03/19 03:08:32;;;;;;;23.73;13.70;;;3.30;99.90;;;;;;4967376;28;20042;-80
2022/03/19 03:10:58;;;;;;;28.85;15.23;;;3.30;99.90;;;;;;4975443;28;20117;-80
2022/03/19 03:13:24;;;;;;;29.27;15.88;;;3.30;99.90;;;;;;4985915;28;20079;-79
2022/03/19 03:15:49;;;;;;;35.15;14.73;;;3.30;99.90;;;;;;4986124;28;20042;-81
2022/03/19 03:18:15;;;;;;;25.65;15.35;;;3.20;99.90;;;;;;5004236;28;20113;-80
2022/03/19 03:20:40;;;;;;;25.73;15.15;;;3.10;99.90;;;;;;4976035;28;20038;-80
2022/03/19 03:23:06;;;;;;;29.55;16.27;;;3.10;99.90;;;;;;4975900;28;20029;-80
2022/03/19 03:25:31;;;;;;;26.13;15.15;;;3.10;99.90;;;;;;4987497;28;20061;-80
2022/03/19 03:27:57;;;;;;;28.80;13.70;;;3.10;99.90;;;;;;4981744;28;20038;-80
2022/03/19 03:30:23;;;;;;;30.73;16.20;;;3.10;99.90;;;;;;4972142;28;20029;-80
2022/03/19 03:32:48;;;;;;;31.63;15.20;;;3.20;99.90;;;;;;4973986;28;20492;-80
2022/03/19 03:35:14;;;;;;;24.15;14.95;;;3.10;99.90;;;;;;4977167;28;20116;-80
2022/03/19 03:37:39;;;;;;;22.75;14.93;;;2.90;99.90;;;;;;4974727;28;20038;-80
2022/03/19 03:40:05;;;;;;;23.75;15.48;;;3.10;99.90;;;;;;4988268;28;20036;-80
2022/03/19 03:42:31;;;;;;;25.67;16.52;;;2.90;99.90;;;;;;4981518;28;20397;-80
2022/03/19 03:44:58;;;;;;;30.33;16.77;;;2.90;99.90;;;;;;4977675;28;20040;-80
2022/03/19 03:47:25;;;;;;;27.42;16.58;;;2.90;99.90;;;;;;5003787;28;20042;-80
2022/03/19 03:49:53;;;;;;;34.08;16.90;;;2.80;99.90;;;;;;4988123;28;20036;-80
2022/03/19 03:52:19;;;;;;;28.73;16.35;;;2.90;99.90;;;;;;5021027;28;20108;-80
2022/03/19 03:54:44;;;;;;;27.02;15.93;;;3.00;99.90;;;;;;4972727;28;20623;-80
2022/03/19 03:57:10;;;;;;;28.20;16.33;;;2.90;99.90;;;;;;4973690;28;20473;-80
2022/03/19 03:59:35;;;;;;;26.30;16.90;;;2.80;99.90;;;;;;4986234;28;20033;-77
2022/03/19 04:02:01;;;;;;;25.75;15.77;;;2.80;99.90;;;;;;4992990;28;20072;-80
2022/03/19 04:04:26;;;;;;;25.20;16.02;;;3.00;99.90;;;;;;4968983;28;20037;-80
2022/03/19 04:06:52;;;;;;;31.23;15.95;;;2.80;99.90;;;;;;4987461;28;20112;-81
2022/03/19 04:09:18;;;;;;;28.52;16.90;;;3.00;99.90;;;;;;4986129;28;20438;-80
2022/03/19 04:11:43;;;;;;;27.33;15.48;;;3.00;99.90;;;;;;4968747;28;20049;-81
2022/03/19 04:14:09;;;;;;;26.65;15.48;;;3.10;99.90;;;;;;4984380;28;20034;-81
2022/03/19 04:16:37;;;;;;;25.63;16.23;;;3.10;99.90;;;;;;4970930;28;20474;-81
2022/03/19 04:19:03;;;;;;;28.25;16.83;;;3.00;99.90;;;;;;5005389;28;20029;-80
2022/03/19 04:21:29;;;;;;;29.92;17.90;;;2.90;99.90;;;;;;4967532;28;20060;-80
2022/03/19 04:23:54;;;;;;;25.75;16.92;;;2.70;99.90;;;;;;4991565;28;20482;-80
2022/03/19 04:26:20;;;;;;;28.95;17.60;;;2.60;99.90;;;;;;4988107;28;20109;-80
2022/03/19 04:28:45;;;;;;;28.70;17.90;;;2.60;99.90;;;;;;4973192;28;20500;-79
2022/03/19 04:31:11;;;;;;;27.13;18.17;;;2.60;99.90;;;;;;4996221;28;20421;-80
2022/03/19 04:33:36;;;;;;;26.17;16.67;;;2.60;99.90;;;;;;4970529;28;20121;-80
2022/03/19 04:38:46;;;;;;;28.23;17.45;;;2.70;99.90;;;;;;5002794;28;20052;-81
2022/03/19 04:41:13;;;;;;;27.63;18.25;;;2.80;99.90;;;;;;4988763;28;20435;-80
2022/03/19 04:43:38;;;;;;;31.60;16.77;;;2.90;99.90;;;;;;4996007;28;20465;-80
2022/03/19 04:46:04;;;;;;;25.95;15.63;;;2.90;99.90;;;;;;4978598;28;20121;-80
2022/03/19 04:48:30;;;;;;;28.73;15.32;;;2.90;99.90;;;;;;4993540;28;20413;-81
2022/03/19 04:50:55;;;;;;;35.20;16.88;;;2.80;99.90;;;;;;4975094;28;20528;-80
2022/03/19 04:53:21;;;;;;;37.22;18.63;;;2.60;99.90;;;;;;4992043;28;20064;-81
2022/03/19 04:55:47;;;;;;;32.95;19.50;;;2.60;99.90;;;;;;4981041;28;20022;-79
2022/03/19 04:58:13;;;;;;;30.17;18.30;;;2.70;99.90;;;;;;4974328;28;20397;-80
2022/03/19 05:00:38;;;;;;;27.00;17.80;;;2.90;99.90;;;;;;5004390;28;20026;-80
2022/03/19 05:03:07;;;;;;;30.17;17.83;;;2.80;99.90;;;;;;5008664;28;20090;-80
2022/03/19 05:05:33;;;;;;;29.33;17.75;;;2.70;99.90;;;;;;4984652;28;20445;-80
2022/03/19 05:07:58;;;;;;;30.70;18.65;;;2.50;99.90;;;;;;4971765;28;20040;-81
2022/03/19 05:13:09;;;;;;;30.88;17.77;;;2.50;99.90;;;;;;5008937;28;20059;-81
2022/03/19 05:15:35;;;;;;;30.42;18.13;;;2.60;99.90;;;;;;4986082;28;20022;-80
2022/03/19 05:18:00;;;;;;;29.58;18.13;;;2.60;99.90;;;;;;4987970;28;20662;-80
2022/03/19 05:20:26;;;;;;;32.05;19.88;;;2.50;99.90;;;;;;4999078;28;20405;-80
2022/03/19 05:22:52;;;;;;;27.02;16.88;;;2.40;99.90;;;;;;4984944;28;20500;-81
2022/03/19 05:25:17;;;;;;;35.42;19.17;;;2.40;99.90;;;;;;4990020;28;20037;-80
2022/03/19 05:27:43;;;;;;;34.78;19.35;;;2.30;99.90;;;;;;4987265;28;20124;-80
2022/03/19 05:30:08;;;;;;;33.80;19.17;;;2.40;99.90;;;;;;4979546;28;20029;-80
2022/03/19 05:32:36;;;;;;;31.60;18.35;;;2.40;99.90;;;;;;5007132;28;20030;-80
2022/03/19 05:35:02;;;;;;;31.92;18.40;;;2.50;99.90;;;;;;4969856;28;20389;-80
2022/03/19 05:37:28;;;;;;;34.13;19.10;;;2.60;99.90;;;;;;4986426;28;20034;-80
2022/03/19 05:39:55;;;;;;;30.98;19.95;;;2.60;99.90;;;;;;4983592;28;20483;-80
2022/03/19 05:42:21;;;;;;;33.67;19.23;;;2.60;99.90;;;;;;4982256;28;20045;-80
2022/03/19 05:44:47;;;;;;;33.40;20.00;;;2.50;99.90;;;;;;4980839;28;20125;-81
2022/03/19 05:47:13;;;;;;;31.45;19.67;;;2.50;99.90;;;;;;4986658;28;20124;-80
2022/03/19 05:49:40;;;;;;;33.92;19.00;;;2.40;99.90;;;;;;4970419;28;20036;-80
2022/03/19 05:52:06;;;;;;;40.25;20.98;;;2.50;99.90;;;;;;4996523;28;20029;-81
2022/03/19 05:54:31;;;;;;;34.38;18.77;;;2.40;99.90;;;;;;5004342;28;20038;-80
2022/03/19 05:56:57;;;;;;;37.65;21.05;;;2.50;99.90;;;;;;4972397;28;20081;-80
2022/03/19 05:59:22;;;;;;;38.05;20.70;;;2.50;99.90;;;;;;4978142;28;20061;-81
2022/03/19 06:01:48;;;;;;;41.38;21.42;;;2.50;99.90;;;;;;4972397;28;20029;-81
2022/03/19 06:04:15;;;;;;;29.52;17.90;;;2.60;99.90;;;;;;4976995;28;20398;-80
2022/03/19 06:06:41;;;;;;;37.55;20.70;;;2.60;99.90;;;;;;4974752;28;20030;-80
2022/03/19 06:09:06;;;;;;;33.42;19.92;;;2.80;99.90;;;;;;4992646;28;20047;-80
2022/03/19 06:11:32;;;;;;;38.92;19.17;;;2.70;99.90;;;;;;4983652;28;20118;-80
2022/03/19 06:13:57;;;;;;;34.03;19.85;;;2.70;99.90;;;;;;4998881;28;20036;-80
2022/03/19 06:16:23;;;;;;;36.67;18.75;;;2.80;99.90;;;;;;4986922;28;20400;-80
2022/03/19 06:18:51;;;;;;;38.75;20.65;;;2.80;99.90;;;;;;5002342;28;20721;-79
2022/03/19 06:21:18;;;;;;;37.70;20.05;;;2.80;99.90;;;;;;4975641;28;20049;-80
2022/03/19 06:23:46;;;;;;;33.42;19.73;;;2.80;99.90;;;;;;4988969;28;20034;-80
2022/03/19 06:26:12;;;;;;;37.38;20.02;;;2.80;99.90;;;;;;4973598;28;20025;-80
2022/03/19 06:28:38;;;;;;;33.25;18.83;;;2.90;99.90;;;;;;4971592;28;20040;-81
2022/03/19 06:31:03;;;;;;;40.35;20.60;;;2.90;99.90;;;;;;4986470;28;20029;-80
2022/03/19 06:33:29;;;;;;;40.80;20.77;;;3.00;99.90;;;;;;4979253;28;20048;-80
2022/03/19 06:38:39;;;;;;;29.38;19.35;;;3.00;99.90;;;;;;4995320;28;20091;-77
2022/03/19 06:41:04;;;;;;;35.72;19.90;;;3.00;99.90;;;;;;4980333;28;20033;-79
2022/03/19 06:43:31;;;;;;;34.58;19.38;;;3.20;99.90;;;;;;5001273;28;20145;-79
2022/03/19 06:45:58;;;;;;;37.60;22.15;;;3.20;99.90;;;;;;4987565;28;20022;-79
2022/03/19 06:48:27;;;;;;;40.25;19.70;;;3.10;99.90;;;;;;4985186;28;20528;-79
2022/03/19 06:50:56;;;;;;;37.00;18.63;;;3.20;99.90;;;;;;4984624;28;20076;-78
2022/03/19 06:53:22;;;;;;;32.25;18.65;;;3.40;99.90;;;;;;4988088;28;20030;-79
2022/03/19 06:55:48;;;;;;;32.55;15.85;;;3.40;99.90;;;;;;4987359;28;20031;-78
2022/03/19 06:58:14;;;;;;;35.03;17.38;;;3.50;99.90;;;;;;4988825;28;20026;-79
2022/03/19 07:00:40;;;;;;;31.42;17.20;;;3.50;99.90;;;;;;4983222;28;20045;-78
2022/03/19 07:03:05;;;;;;;30.33;18.63;;;3.70;99.90;;;;;;4972033;28;20041;-79
2022/03/19 07:05:31;;;;;;;30.08;19.58;;;3.60;99.90;;;;;;4967794;28;20038;-81
2022/03/19 07:07:57;;;;;;;34.47;17.85;;;3.60;99.90;;;;;;4971293;28;20121;-80
2022/03/19 07:10:22;;;;;;;33.72;18.38;;;3.70;99.90;;;;;;4970755;28;20038;-80
2022/03/19 07:12:50;;;;;;;29.98;17.60;;;3.70;99.90;;;;;;4977803;28;20040;-80
2022/03/19 07:15:17;;;;;;;36.78;17.73;;;3.90;99.90;;;;;;4966041;28;20025;-80
2022/03/19 07:17:43;;;;;;;31.60;17.10;;;3.90;99.90;;;;;;5007932;28;20109;-80
2022/03/19 07:20:12;;;;;;;29.02;16.95;;;4.00;99.90;;;;;;4971366;28;20120;-81
2022/03/19 07:22:54;;;;;;;26.05;15.75;;;3.90;99.90;;;;;;4979653;28;20037;-80
2022/03/19 07:25:21;;;;;;;27.02;16.95;;;4.10;99.90;;;;;;4982193;28;20033;-80
2022/03/19 07:27:46;;;;;;;27.65;15.85;;;4.20;99.90;;;;;;4975876;28;20041;-80
2022/03/19 07:30:12;;;;;;;27.52;16.45;;;4.10;99.90;;;;;;4987415;28;20109;-79
2022/03/19 07:32:38;;;;;;;28.88;15.85;;;4.20;99.90;;;;;;4981482;28;20557;-78
2022/03/19 07:35:04;;;;;;;30.73;15.98;;;4.20;99.90;;;;;;4965405;28;20115;-79
2022/03/19 07:37:30;;;;;;;29.05;17.65;;;4.30;99.90;;;;;;4968565;28;20122;-80
2022/03/19 07:39:56;;;;;;;27.92;14.90;;;4.30;99.90;;;;;;4987288;28;20199;-79
2022/03/19 07:42:22;;;;;;;26.63;15.50;;;4.40;99.90;;;;;;4989363;28;20106;-80
2022/03/19 07:44:47;;;;;;;24.05;15.95;;;4.40;99.90;;;;;;4972240;28;20103;-79
2022/03/19 07:47:13;;;;;;;19.38;12.60;;;4.60;99.90;;;;;;4988588;28;20519;-79
2022/03/19 07:49:39;;;;;;;20.90;13.27;;;4.70;99.90;;;;;;4989433;28;20038;-80
2022/03/19 07:52:06;;;;;;;24.80;13.68;;;4.60;99.90;;;;;;4968960;28;20120;-79
2022/03/19 07:54:32;;;;;;;27.38;14.05;;;4.70;99.90;;;;;;4962846;28;20038;-79
2022/03/19 07:56:57;;;;;;;21.25;13.20;;;4.70;99.90;;;;;;4995348;28;20037;-82
2022/03/19 07:59:23;;;;;;;20.55;11.70;;;4.80;99.90;;;;;;4986407;28;20022;-81
2022/03/19 08:01:49;;;;;;;21.98;11.50;;;4.80;99.90;;;;;;4968821;28;20030;-81
2022/03/19 08:04:15;;;;;;;24.33;12.20;;;5.00;99.90;;;;;;4971918;28;20044;-80
2022/03/19 08:06:41;;;;;;;24.35;13.15;;;4.90;99.90;;;;;;4975615;28;20164;-82
2022/03/19 08:09:07;;;;;;;25.05;12.52;;;4.90;99.90;;;;;;4987199;28;20043;-80
2022/03/19 08:11:33;;;;;;;27.85;13.02;;;5.00;99.90;;;;;;4976606;28;20516;-81
2022/03/19 08:13:59;;;;;;;22.70;12.88;;;5.20;99.90;;;;;;4966168;28;20029;-81
2022/03/19 08:16:24;;;;;;;22.50;12.20;;;5.20;99.90;;;;;;4982802;28;20022;-80
2022/03/19 08:18:50;;;;;;;22.73;11.32;;;5.50;99.90;;;;;;4968303;28;20484;-81
2022/03/19 08:21:16;;;;;;;25.05;11.73;;;5.50;99.90;;;;;;4967817;28;20033;-81
2022/03/19 08:23:41;;;;;;;20.17;12.85;;;5.30;99.90;;;;;;4973323;28;20056;-81
2022/03/19 08:26:07;;;;;;;20.30;12.02;;;5.40;99.90;;;;;;4966665;28;20026;-81
2022/03/19 08:28:32;;;;;;;20.08;10.95;;;5.70;99.90;;;;;;4985962;28;20029;-80
2022/03/19 08:30:58;;;;;;;24.63;10.95;;;5.70;99.90;;;;;;4990219;28;20480;-81
2022/03/19 08:33:25;;;;;;;21.40;11.05;;;5.70;99.90;;;;;;4972725;28;20032;-81
2022/03/19 08:35:50;;;;;;;21.50;10.80;;;6.00;99.90;;;;;;4983766;28;20537;-80
2022/03/19 08:41:00;;;;;;;16.60;9.80;;;6.10;99.90;;;;;;4985210;28;20028;-81
2022/03/19 08:43:26;;;;;;;16.98;10.63;;;6.20;99.90;;;;;;4973389;28;20537;-80
2022/03/19 08:45:51;;;;;;;19.17;9.95;;;6.30;99.90;;;;;;4978780;28;20045;-81
2022/03/19 08:48:19;;;;;;;16.92;9.35;;;6.20;99.90;;;;;;4997886;28;20034;-80
2022/03/19 08:50:46;;;;;;;17.90;9.85;;;6.10;99.90;;;;;;4970643;28;20033;-81
2022/03/19 08:53:13;;;;;;;14.68;9.50;;;6.20;99.90;;;;;;4971935;28;20033;-81
2022/03/19 08:55:38;;;;;;;17.98;9.23;;;6.20;99.90;;;;;;4985191;28;20120;-80
2022/03/19 08:58:04;;;;;;;12.88;8.90;;;6.30;99.90;;;;;;4972034;28;20116;-81
2022/03/19 09:00:30;;;;;;;20.98;9.15;;;6.80;99.90;;;;;;4967414;28;20644;-81
2022/03/19 09:02:56;;;;;;;12.50;8.65;;;6.60;99.90;;;;;;4974032;28;20068;-81
2022/03/19 09:05:22;;;;;;;18.40;8.88;;;6.60;99.90;;;;;;4999096;28;20058;-82
2022/03/19 09:07:48;;;;;;;18.70;8.38;;;6.60;99.90;;;;;;4972698;28;20022;-81
2022/03/19 09:10:13;;;;;;;24.05;8.57;;;7.00;99.90;;;;;;4973994;28;20060;-82
2022/03/19 09:12:39;;;;;;;14.65;7.88;;;7.30;99.90;;;;;;4970327;28;20034;-81
2022/03/19 09:15:08;;;;;;;14.57;7.55;;;7.20;99.90;;;;;;4988049;28;20120;-81
2022/03/19 09:17:34;;;;;;;19.40;8.13;;;6.90;99.90;;;;;;4992603;28;20493;-80
2022/03/19 09:19:59;;;;;;;17.35;8.02;;;7.00;99.90;;;;;;4983213;28;20030;-81
2022/03/19 09:22:25;;;;;;;15.38;8.40;;;7.10;99.90;;;;;;4968858;28;20036;-81
2022/03/19 09:24:50;;;;;;;16.55;6.63;;;7.00;99.90;;;;;;4989472;28;20456;-81
2022/03/19 09:27:16;;;;;;;16.85;7.20;;;7.00;99.90;;;;;;4974170;28;20440;-80
2022/03/19 09:29:42;;;;;;;14.52;6.32;;;7.70;99.90;;;;;;4969705;28;20406;-82
2022/03/19 09:32:09;;;;;;;15.02;7.60;;;8.00;99.90;;;;;;4970671;28;20029;-81
2022/03/19 09:34:35;;;;;;;14.07;5.82;;;7.50;99.90;;;;;;4997506;28;20469;-80
2022/03/19 09:37:01;;;;;;;17.85;6.45;;;7.60;99.90;;;;;;4983576;28;20037;-81
2022/03/19 09:39:27;;;;;;;14.77;5.93;;;7.50;99.90;;;;;;4984676;28;20084;-81
2022/03/19 09:41:55;;;;;;;16.75;6.88;;;7.90;99.90;;;;;;4973835;28;20041;-80
2022/03/19 09:44:24;;;;;;;13.95;7.00;;;7.90;99.90;;;;;;4972816;28;20509;-80
2022/03/19 09:46:49;;;;;;;9.98;4.85;;;7.90;99.90;;;;;;4975373;28;20119;-80
2022/03/19 09:49:15;;;;;;;10.38;5.32;;;8.00;99.90;;;;;;4979755;28;20034;-81
2022/03/19 09:51:43;;;;;;;11.85;5.22;;;8.20;99.90;;;;;;4972563;28;20037;-80
2022/03/19 09:54:09;;;;;;;7.35;4.15;;;7.90;99.90;;;;;;5003828;28;20022;-81
2022/03/19 09:56:36;;;;;;;8.30;4.07;;;8.60;99.90;;;;;;4976702;28;20123;-83
2022/03/19 09:59:01;;;;;;;8.38;4.38;;;8.40;99.90;;;;;;4975440;28;20408;-84
2022/03/19 10:01:30;;;;;;;10.45;4.38;;;9.00;99.90;;;;;;4973312;28;20030;-83
2022/03/19 10:04:00;;;;;;;9.13;4.03;;;9.10;99.90;;;;;;4974761;28;20030;-83
2022/03/19 10:09:16;;;;;;;10.30;4.47;;;9.10;99.90;;;;;;4998363;28;20577;-83
2022/03/19 10:11:41;;;;;;;8.82;3.90;;;9.00;99.90;;;;;;4975747;28;20521;-82
2022/03/19 10:14:07;;;;;;;7.75;4.68;;;8.60;99.90;;;;;;4984862;28;20038;-84
2022/03/19 10:16:34;;;;;;;11.38;3.70;;;8.60;99.90;;;;;;4991423;28;20431;-83
2022/03/19 10:19:02;;;;;;;9.13;4.38;;;8.60;99.90;;;;;;4983625;28;20120;-83
2022/03/19 10:21:28;;;;;;;8.80;3.63;;;8.40;99.90;;;;;;4976152;28;20477;-83
2022/03/19 10:23:55;;;;;;;7.70;3.35;;;8.40;99.90;;;;;;4971664;28;20049;-84
2022/03/19 10:26:27;;;;;;;6.65;3.28;;;8.80;99.90;;;;;;4973576;28;20064;-83
2022/03/19 10:29:11;;;;;;;6.85;3.40;;;8.80;99.90;;;;;;5009751;28;20154;-83
2022/03/19 10:31:44;;;;;;;6.85;3.00;;;8.70;99.90;;;;;;4986799;28;20037;-83
2022/03/19 10:34:09;;;;;;;10.48;3.80;;;9.10;99.90;;;;;;4992384;28;20056;-83
2022/03/19 10:36:36;;;;;;;8.38;3.28;;;8.80;99.90;;;;;;4985358;28;20053;-83
2022/03/19 10:39:10;;;;;;;8.95;3.78;;;8.60;99.90;;;;;;4973932;28;20041;-83
2022/03/19 10:41:35;;;;;;;8.38;2.97;;;9.20;99.90;;;;;;4973713;28;20041;-84
2022/03/19 10:44:17;;;;;;;6.28;2.75;;;9.30;99.90;;;;;;4989057;28;20060;-84
2022/03/19 10:46:52;;;;;;;5.40;2.78;;;9.20;99.90;;;;;;5004004;28;20036;-84
2022/03/19 10:49:23;;;;;;;7.68;2.22;;;9.70;99.90;;;;;;5000366;28;20033;-84
2022/03/19 10:51:50;;;;;;;5.97;2.28;;;9.20;99.90;;;;;;4989596;28;20583;-84
2022/03/19 10:54:16;;;;;;;5.28;1.85;;;9.10;99.90;;;;;;4980151;28;20042;-84
2022/03/19 10:56:42;;;;;;;5.30;1.73;;;8.90;99.90;;;;;;4988438;28;20029;-82
2022/03/19 10:59:08;;;;;;;6.13;2.10;;;9.00;99.90;;;;;;4971352;28;20493;-84
2022/03/19 11:01:37;;;;;;;4.90;1.52;;;9.20;99.90;;;;;;4990864;28;20033;-84
2022/03/19 11:04:04;;;;;;;3.72;1.98;;;9.00;98.80;;;;;;4973118;28;20057;-84
2022/03/19 11:06:32;;;;;;;5.07;1.52;;;9.30;97.60;;;;;;4982483;28;20040;-84
2022/03/19 11:09:01;;;;;;;6.72;1.60;;;9.70;99.10;;;;;;4968996;28;20045;-83
2022/03/19 11:11:32;;;;;;;3.45;1.30;;;9.90;96.50;;;;;;4987320;28;20436;-84
2022/03/19 11:13:58;;;;;;;3.60;1.35;;;9.80;93.20;;;;;;4974612;28;20037;-84
2022/03/19 11:16:23;;;;;;;5.72;1.73;;;10.10;91.60;;;;;;4975890;28;20110;-84
2022/03/19 11:18:52;;;;;;;2.65;1.23;;;9.50;90.40;;;;;;4978912;28;20429;-84
2022/03/19 11:21:18;;;;;;;3.28;1.05;;;9.80;88.20;;;;;;4971068;28;20061;-84
2022/03/19 11:23:56;;;;;;;6.97;1.13;;;10.30;83.10;;;;;;4985915;28;20061;-84
2022/03/19 11:26:24;;;;;;;4.00;1.10;;;9.70;91.00;;;;;;5000861;28;20509;-84
2022/03/19 11:28:50;;;;;;;6.45;1.83;;;9.80;89.70;;;;;;4977310;28;20389;-84
2022/03/19 11:31:22;;;;;;;5.80;1.30;;;9.70;85.60;;;;;;4973482;28;20033;-83
2022/03/19 11:33:48;;;;;;;4.60;1.65;;;9.90;89.00;;;;;;4991785;28;20393;-83
2022/03/19 11:36:14;;;;;;;2.15;1.02;;;9.50;84.00;;;;;;4970699;28;20026;-83
2022/03/19 11:38:52;;;;;;;3.95;1.08;;;10.40;79.60;;;;;;4971214;28;20431;-83
2022/03/19 11:41:25;;;;;;;3.97;1.23;;;10.10;79.50;;;;;;4975719;28;20017;-83
2022/03/19 11:44:15;;;;;;;5.22;1.20;;;10.10;81.10;;;;;;4989490;28;20029;-84
2022/03/19 11:47:02;;;;;;;8.02;1.30;;;10.20;80.50;;;;;;4999393;28;20044;-83
2022/03/19 11:49:43;;;;;;;3.45;1.10;;;10.20;74.90;;;;;;4990693;28;20628;-83
2022/03/19 11:52:08;;;;;;;4.55;1.05;;;10.30;79.20;;;;;;5011205;28;20057;-83
2022/03/19 11:55:03;;;;;;;4.00;1.30;;;11.00;75.00;;;;;;4972252;28;20030;-83
2022/03/19 11:57:47;;;;;;;3.40;1.02;;;10.70;74.50;;;;;;4998437;28;20095;-84
2022/03/19 12:00:20;;;;;;;6.20;2.40;;;11.00;74.30;;;;;;4976896;28;20564;-83
2022/03/19 12:03:06;;;;;;;4.25;1.52;;;11.20;75.80;;;;;;4973811;28;20052;-84
2022/03/19 12:05:32;;;;;;;5.38;1.42;;;11.00;76.10;;;;;;4999136;28;20105;-83
2022/03/19 12:08:12;;;;;;;5.50;1.80;;;10.30;76.30;;;;;;4989035;28;20037;-84
2022/03/19 12:10:59;;;;;;;6.65;1.85;;;10.20;74.80;;;;;;4975299;28;20030;-84
2022/03/19 12:13:28;;;;;;;5.38;1.40;;;10.20;77.10;;;;;;5004940;28;20168;-84
2022/03/19 12:15:54;;;;;;;6.35;1.88;;;10.60;76.80;;;;;;5001581;28;20485;-83
2022/03/19 12:18:27;;;;;;;4.15;1.48;;;10.50;76.00;;;;;;4996605;28;20026;-83
2022/03/19 12:21:01;;;;;;;5.60;1.40;;;10.60;74.90;;;;;;4983140;28;20030;-84
2022/03/19 12:23:29;;;;;;;2.38;0.82;;;10.40;72.80;;;;;;4973523;28;20033;-83
2022/03/19 12:26:02;;;;;;;4.68;1.63;;;11.00;74.70;;;;;;4985806;28;20517;-83
2022/03/19 12:28:29;;;;;;;8.52;1.70;;;11.00;71.50;;;;;;4996030;28;20034;-84
2022/03/19 12:31:02;;;;;;;3.70;1.23;;;10.60;70.50;;;;;;4987804;28;20485;-83
2022/03/19 12:33:31;;;;;;;2.15;1.40;;;10.40;70.80;;;;;;4985262;28;20083;-82
2022/03/19 12:35:58;;;;;;;3.50;1.27;;;11.00;73.10;;;;;;4987251;28;20030;-81
2022/03/19 12:38:32;;;;;;;8.95;1.55;;;10.70;74.80;;;;;;4977496;28;20066;-81
2022/03/19 12:43:42;;;;;;;4.50;1.35;;;11.20;71.90;;;;;;4990234;28;20550;-80
2022/03/19 12:46:07;;;;;;;5.18;1.63;;;10.80;71.00;;;;;;4973469;28;20116;-80
2022/03/19 12:48:33;;;;;;;8.02;1.40;;;11.10;72.40;;;;;;4985554;28;20113;-80
2022/03/19 12:50:59;;;;;;;7.55;1.35;;;10.70;69.80;;;;;;4986050;28;20132;-80
2022/03/19 12:53:31;;;;;;;4.00;1.30;;;11.10;69.90;;;;;;4973163;28;20514;-81
2022/03/19 12:56:14;;;;;;;4.20;1.25;;;10.80;69.20;;;;;;4998015;28;20052;-80
2022/03/19 12:58:41;;;;;;;3.25;1.02;;;11.30;66.90;;;;;;5003058;28;20127;-80